Time;durP1;ratioP1;P1;durP2;ratioP2;P2;SDS_P1;SDS_P2;PMS_P1;PMS_P2;Temp;Humidity;BMP_temperature;BMP_pressure;BME280_temperature;BME280_humidity;BME280_pressure;Samples;Min_cycle;Max_cycle;Signal;HPM_P1;HPM_P2
2023/11/08 00:00:27;;;;;;;1.27;1.00;;;;;;;;;;5002050;28;20121;-85
2023/11/08 00:02:54;;;;;;;2.15;1.20;;;;;;;;;;5009944;28;20101;-84
2023/11/08 00:05:23;;;;;;;4.53;0.90;;;;;;;;;;4994751;28;20116;-87
2023/11/08 00:07:50;;;;;;;5.97;2.25;;;;;;;;;;4957383;28;1094182;-87
2023/11/08 00:10:18;;;;;;;7.88;1.40;;;;;;;;;;5010900;28;20101;-85
2023/11/08 00:12:45;;;;;;;3.63;1.08;;;;;;;;;;4995273;28;20046;-85
2023/11/08 00:15:13;;;;;;;4.60;1.10;;;;;;;;;;4995614;28;20471;-85
2023/11/08 00:17:40;;;;;;;3.28;0.98;;;;;;;;;;5010880;28;20057;-85
2023/11/08 00:20:10;;;;;;;4.65;1.17;;;;;;;;;;5011079;28;20069;-86
2023/11/08 00:22:38;;;;;;;4.95;1.40;;;;;;;;;;5010880;28;20046;-84
2023/11/08 00:25:05;;;;;;;5.07;1.10;;;;;;;;;;5010967;28;20050;-85
2023/11/08 00:27:33;;;;;;;7.75;1.40;;;;;;;;;;5010667;28;20046;-83
2023/11/08 00:30:03;;;;;;;4.15;1.45;;;;;;;;;;5010572;28;20490;-86
2023/11/08 00:32:30;;;;;;;5.93;1.40;;;;;;;;;;5010612;28;20053;-85
2023/11/08 00:34:57;;;;;;;3.65;1.10;;;;;;;;;;5010412;28;20058;-85
2023/11/08 00:37:25;;;;;;;5.43;1.45;;;;;;;;;;4995245;28;20077;-85
2023/11/08 00:39:52;;;;;;;3.83;0.73;;;;;;;;;;4995701;28;20411;-85
2023/11/08 00:42:19;;;;;;;2.95;0.73;;;;;;;;;;5010393;28;20050;-85
2023/11/08 00:44:47;;;;;;;3.80;1.13;;;;;;;;;;5010879;28;20057;-86
2023/11/08 00:47:15;;;;;;;2.72;0.80;;;;;;;;;;5010098;28;20458;-85
2023/11/08 00:49:43;;;;;;;3.28;1.40;;;;;;;;;;5010401;28;20057;-86
2023/11/08 00:52:11;;;;;;;7.85;1.35;;;;;;;;;;5010843;28;20553;-84
2023/11/08 00:54:39;;;;;;;3.47;1.13;;;;;;;;;;5010041;28;20074;-84
2023/11/08 00:57:08;;;;;;;4.30;1.65;;;;;;;;;;5009950;28;20051;-83
2023/11/08 00:59:36;;;;;;;6.05;1.35;;;;;;;;;;5009769;28;20050;-85
2023/11/08 01:02:03;;;;;;;7.05;1.10;;;;;;;;;;5009704;28;20051;-85
2023/11/08 01:04:31;;;;;;;2.30;1.05;;;;;;;;;;5010430;28;20120;-84
2023/11/08 01:07:00;;;;;;;5.75;1.17;;;;;;;;;;4995241;28;20065;-83
2023/11/08 01:09:27;;;;;;;2.80;1.08;;;;;;;;;;5002230;28;20052;-84
2023/11/08 01:11:55;;;;;;;2.88;0.80;;;;;;;;;;4994746;28;20051;-89
2023/11/08 01:14:23;;;;;;;4.45;1.30;;;;;;;;;;5010094;28;20050;-85
2023/11/08 01:16:50;;;;;;;4.68;0.95;;;;;;;;;;5010137;28;20077;-84
2023/11/08 01:19:18;;;;;;;4.40;0.98;;;;;;;;;;5009925;28;20108;-86
2023/11/08 01:21:46;;;;;;;6.07;1.38;;;;;;;;;;5003858;28;20055;-85
2023/11/08 01:24:13;;;;;;;3.95;1.00;;;;;;;;;;5008508;28;20145;-84
2023/11/08 01:26:41;;;;;;;3.88;1.10;;;;;;;;;;5009830;28;20355;-86
2023/11/08 01:29:08;;;;;;;3.58;0.90;;;;;;;;;;5009823;28;20058;-84
2023/11/08 01:31:36;;;;;;;3.17;1.17;;;;;;;;;;5009373;28;20050;-84
2023/11/08 01:34:03;;;;;;;2.47;0.77;;;;;;;;;;4994106;28;20054;-86
2023/11/08 01:36:31;;;;;;;3.42;0.90;;;;;;;;;;5009240;28;20047;-85
2023/11/08 01:38:58;;;;;;;3.70;0.88;;;;;;;;;;5009565;28;20050;-85
2023/11/08 01:41:26;;;;;;;6.47;1.15;;;;;;;;;;5009506;28;20050;-85
2023/11/08 01:43:53;;;;;;;2.90;1.02;;;;;;;;;;5009112;28;20058;-85
2023/11/08 01:46:26;;;;;;;3.20;1.38;;;;;;;;;;5009031;28;20265;-86
2023/11/08 01:48:53;;;;;;;4.57;1.42;;;;;;;;;;4994178;28;20061;-84
2023/11/08 01:51:21;;;;;;;5.63;1.20;;;;;;;;;;5009016;28;20514;-85
2023/11/08 01:53:49;;;;;;;6.78;1.13;;;;;;;;;;5008697;28;20145;-84
2023/11/08 01:56:18;;;;;;;3.10;1.08;;;;;;;;;;5009076;28;20097;-87
2023/11/08 01:58:46;;;;;;;7.63;1.70;;;;;;;;;;4994002;28;20560;-85
2023/11/08 02:01:13;;;;;;;5.82;1.17;;;;;;;;;;5009304;28;20499;-86
2023/11/08 02:03:41;;;;;;;5.80;1.10;;;;;;;;;;5010802;28;20050;-86
2023/11/08 02:06:13;;;;;;;3.80;1.10;;;;;;;;;;5012164;28;20129;-85
2023/11/08 02:08:41;;;;;;;3.08;1.00;;;;;;;;;;5009578;28;20118;-85
2023/11/08 02:11:08;;;;;;;5.30;1.02;;;;;;;;;;4993808;28;20052;-86
2023/11/08 02:13:36;;;;;;;5.05;0.82;;;;;;;;;;5007950;28;20407;-84
2023/11/08 02:16:03;;;;;;;0.98;0.65;;;;;;;;;;5008665;28;20047;-84
2023/11/08 02:18:31;;;;;;;1.73;0.75;;;;;;;;;;5008569;28;20054;-84
2023/11/08 02:21:02;;;;;;;2.40;0.80;;;;;;;;;;4993315;28;20042;-84
2023/11/08 02:23:31;;;;;;;3.08;0.80;;;;;;;;;;5000900;28;20109;-83
2023/11/08 02:25:59;;;;;;;3.33;0.90;;;;;;;;;;5008686;28;20054;-85
2023/11/08 02:28:27;;;;;;;5.13;0.80;;;;;;;;;;5008776;28;20051;-84
2023/11/08 02:30:55;;;;;;;2.28;0.52;;;;;;;;;;5008484;28;20058;-84
2023/11/08 02:33:26;;;;;;;1.88;0.75;;;;;;;;;;5008480;28;20549;-84
2023/11/08 02:35:53;;;;;;;1.85;0.50;;;;;;;;;;5008499;28;20054;-86
2023/11/08 02:38:20;;;;;;;1.58;0.75;;;;;;;;;;5008134;28;20105;-84
2023/11/08 02:40:48;;;;;;;1.58;0.80;;;;;;;;;;5008564;28;20491;-84
2023/11/08 02:43:16;;;;;;;2.25;0.70;;;;;;;;;;5008314;28;20062;-85
2023/11/08 02:45:44;;;;;;;1.50;0.63;;;;;;;;;;4993341;28;20062;-84
2023/11/08 02:48:11;;;;;;;3.22;0.85;;;;;;;;;;5008171;28;20133;-84
2023/11/08 02:50:39;;;;;;;2.15;0.47;;;;;;;;;;5008261;28;20054;-85
2023/11/08 02:53:07;;;;;;;4.78;0.70;;;;;;;;;;4993150;28;20050;-89
2023/11/08 02:55:37;;;;;;;4.03;0.75;;;;;;;;;;5008454;28;20058;-84
2023/11/08 02:58:04;;;;;;;3.33;1.00;;;;;;;;;;5008242;28;20101;-84
2023/11/08 03:00:31;;;;;;;2.10;0.68;;;;;;;;;;4993468;28;20054;-86
2023/11/08 03:02:59;;;;;;;2.47;0.43;;;;;;;;;;5008253;28;20081;-85
2023/11/08 03:05:27;;;;;;;3.90;0.57;;;;;;;;;;5008184;28;20052;-84
2023/11/08 03:07:55;;;;;;;2.83;0.60;;;;;;;;;;5007992;28;20069;-85
2023/11/08 03:10:22;;;;;;;0.73;0.70;;;;;;;;;;5008153;28;20417;-86
2023/11/08 03:12:50;;;;;;;2.70;0.68;;;;;;;;;;4993064;28;20097;-85
2023/11/08 03:15:20;;;;;;;1.13;0.50;;;;;;;;;;5007978;28;20495;-85
2023/11/08 03:17:50;;;;;;;0.82;0.60;;;;;;;;;;5008786;28;20051;-85
2023/11/08 03:20:18;;;;;;;1.05;0.60;;;;;;;;;;5008267;28;20133;-85
2023/11/08 03:22:46;;;;;;;1.67;0.60;;;;;;;;;;5008254;28;20550;-85
2023/11/08 03:25:16;;;;;;;2.35;0.68;;;;;;;;;;5010616;28;20130;-85
2023/11/08 03:27:46;;;;;;;4.90;0.70;;;;;;;;;;5012238;28;20050;-86
2023/11/08 03:30:15;;;;;;;1.45;0.70;;;;;;;;;;5011801;28;20587;-85
2023/11/08 03:32:43;;;;;;;1.50;0.63;;;;;;;;;;5013493;28;20054;-85
2023/11/08 03:35:11;;;;;;;1.08;0.73;;;;;;;;;;5011726;28;20434;-89
2023/11/08 03:37:45;;;;;;;3.70;0.80;;;;;;;;;;5006980;28;20055;-85
2023/11/08 03:40:12;;;;;;;;;;;;;;;;;;4995314;28;20384;-84
2023/11/08 03:42:40;;;;;;;4.13;0.60;;;;;;;;;;5011786;28;19922;-85
2023/11/08 03:45:08;;;;;;;1.85;0.52;;;;;;;;;;5011894;28;20050;-86
2023/11/08 03:47:36;;;;;;;1.55;0.40;;;;;;;;;;5011818;28;20051;-85
2023/11/08 03:50:04;;;;;;;1.70;0.77;;;;;;;;;;5011873;28;20060;-84
2023/11/08 03:52:31;;;;;;;1.77;0.57;;;;;;;;;;5011678;28;20054;-86
2023/11/08 03:54:59;;;;;;;1.08;0.43;;;;;;;;;;5011624;28;20050;-84
2023/11/08 03:57:27;;;;;;;1.20;0.45;;;;;;;;;;5011828;28;20059;-85
2023/11/08 03:59:54;;;;;;;0.50;0.40;;;;;;;;;;5011390;28;20058;-85
2023/11/08 04:02:22;;;;;;;2.13;0.60;;;;;;;;;;5011105;28;20058;-86
2023/11/08 04:04:50;;;;;;;0.77;0.38;;;;;;;;;;5011499;28;20081;-85
2023/11/08 04:07:20;;;;;;;0.40;0.40;;;;;;;;;;5010978;28;20057;-85
2023/11/08 04:09:48;;;;;;;2.35;0.60;;;;;;;;;;5011607;28;20053;-84
2023/11/08 04:12:16;;;;;;;1.58;0.50;;;;;;;;;;5012134;28;20050;-86
2023/11/08 04:14:43;;;;;;;0.93;0.40;;;;;;;;;;5011358;28;20050;-84
2023/11/08 04:17:11;;;;;;;2.25;0.30;;;;;;;;;;5010740;28;20433;-84
2023/11/08 04:19:39;;;;;;;0.28;0.28;;;;;;;;;;5011637;28;20631;-86
2023/11/08 04:22:06;;;;;;;0.63;0.60;;;;;;;;;;5011464;28;20410;-86
2023/11/08 04:24:35;;;;;;;0.30;0.30;;;;;;;;;;4995858;28;20173;-84
2023/11/08 04:27:02;;;;;;;1.75;0.20;;;;;;;;;;5010763;28;20419;-84
2023/11/08 04:29:33;;;;;;;1.17;0.30;;;;;;;;;;5010725;28;20058;-85
2023/11/08 04:32:00;;;;;;;0.40;0.30;;;;;;;;;;5010970;28;20051;-85
2023/11/08 04:34:28;;;;;;;0.57;0.20;;;;;;;;;;5011188;28;20077;-85
2023/11/08 04:36:55;;;;;;;0.32;0.32;;;;;;;;;;5010264;28;20515;-85
2023/11/08 04:39:23;;;;;;;0.57;0.28;;;;;;;;;;5010528;28;20061;-85
2023/11/08 04:41:51;;;;;;;1.13;0.63;;;;;;;;;;5010694;28;20054;-87
2023/11/08 04:44:19;;;;;;;0.70;0.30;;;;;;;;;;5010786;28;20050;-85
2023/11/08 04:46:47;;;;;;;2.67;1.15;;;;;;;;;;5010505;28;20056;-85
2023/11/08 04:49:17;;;;;;;1.80;0.50;;;;;;;;;;5010437;28;20088;-84
2023/11/08 04:51:45;;;;;;;1.45;0.30;;;;;;;;;;5010497;28;20057;-84
2023/11/08 04:54:12;;;;;;;0.73;0.40;;;;;;;;;;5010810;28;20054;-84
2023/11/08 04:56:41;;;;;;;1.30;0.30;;;;;;;;;;5015541;28;20053;-85
2023/11/08 04:59:11;;;;;;;0.50;0.50;;;;;;;;;;5016422;28;20058;-84
2023/11/08 05:01:39;;;;;;;1.02;0.80;;;;;;;;;;4995568;28;20042;-85
2023/11/08 05:04:06;;;;;;;4.03;0.65;;;;;;;;;;5009858;28;20104;-86
2023/11/08 05:06:33;;;;;;;2.35;0.88;;;;;;;;;;5009704;28;20141;-85
2023/11/08 05:09:01;;;;;;;1.42;0.40;;;;;;;;;;5010230;28;20054;-83
2023/11/08 05:11:29;;;;;;;0.40;0.30;;;;;;;;;;4987143;28;20116;-85
2023/11/08 05:13:57;;;;;;;1.88;0.40;;;;;;;;;;4994946;28;20053;-85
2023/11/08 05:16:24;;;;;;;0.65;0.28;;;;;;;;;;5009891;28;20085;-85
2023/11/08 05:18:52;;;;;;;0.47;0.30;;;;;;;;;;5009822;28;20054;-84
2023/11/08 05:21:21;;;;;;;0.32;0.30;;;;;;;;;;5009806;28;20068;-85
2023/11/08 05:23:48;;;;;;;0.77;0.45;;;;;;;;;;4994550;28;20046;-86
2023/11/08 05:26:16;;;;;;;0.88;0.73;;;;;;;;;;5009687;28;20050;-84
2023/11/08 05:28:44;;;;;;;0.57;0.40;;;;;;;;;;5009915;28;20057;-85
2023/11/08 05:31:11;;;;;;;1.13;0.45;;;;;;;;;;5009668;28;20046;-85
2023/11/08 05:33:39;;;;;;;0.47;0.20;;;;;;;;;;4994546;28;20407;-84
2023/11/08 05:36:07;;;;;;;0.88;0.35;;;;;;;;;;5009630;28;20058;-85
2023/11/08 05:38:37;;;;;;;0.32;0.32;;;;;;;;;;5009608;28;20458;-84
2023/11/08 05:41:05;;;;;;;2.75;0.73;;;;;;;;;;5009592;28;20407;-84
2023/11/08 05:43:32;;;;;;;2.95;0.47;;;;;;;;;;5009322;28;20058;-86
2023/11/08 05:45:59;;;;;;;2.03;0.70;;;;;;;;;;5009834;28;20115;-86
2023/11/08 05:48:27;;;;;;;3.75;0.80;;;;;;;;;;5001464;28;20105;-86
2023/11/08 05:50:54;;;;;;;3.05;0.63;;;;;;;;;;4994226;28;20388;-87
2023/11/08 05:53:22;;;;;;;0.65;0.57;;;;;;;;;;5009187;28;20503;-86
2023/11/08 05:55:50;;;;;;;2.15;0.70;;;;;;;;;;4994412;28;20510;-85
2023/11/08 05:58:17;;;;;;;3.15;0.55;;;;;;;;;;5009260;28;20050;-85
2023/11/08 06:00:44;;;;;;;1.65;0.75;;;;;;;;;;5008929;28;20054;-86
2023/11/08 06:03:12;;;;;;;2.60;0.90;;;;;;;;;;5009391;28;20085;-87
2023/11/08 06:05:40;;;;;;;1.13;0.98;;;;;;;;;;5009191;28;20046;-84
2023/11/08 06:08:07;;;;;;;2.70;0.77;;;;;;;;;;4993827;28;20101;-86
2023/11/08 06:10:35;;;;;;;2.92;0.60;;;;;;;;;;5009313;28;20057;-85
2023/11/08 06:13:03;;;;;;;1.65;0.68;;;;;;;;;;5009041;28;20061;-85
2023/11/08 06:15:30;;;;;;;1.92;0.75;;;;;;;;;;5008951;28;20050;-86
2023/11/08 06:17:58;;;;;;;2.95;0.98;;;;;;;;;;5009018;28;20064;-86
2023/11/08 06:20:26;;;;;;;1.98;0.68;;;;;;;;;;5009299;28;20133;-84
2023/11/08 06:22:53;;;;;;;4.20;1.13;;;;;;;;;;5008787;28;20121;-87
2023/11/08 06:25:20;;;;;;;2.55;0.98;;;;;;;;;;5008527;28;20054;-85
2023/11/08 06:27:48;;;;;;;1.30;0.80;;;;;;;;;;5009028;28;20053;-86
2023/11/08 06:30:16;;;;;;;2.40;1.02;;;;;;;;;;5008928;28;20134;-85
2023/11/08 06:32:44;;;;;;;3.65;1.05;;;;;;;;;;5008887;28;20050;-83
2023/11/08 06:35:11;;;;;;;3.35;0.80;;;;;;;;;;5008689;28;20058;-88
2023/11/08 06:37:39;;;;;;;2.28;0.73;;;;;;;;;;5009178;28;20046;-85
2023/11/08 06:40:07;;;;;;;5.22;1.10;;;;;;;;;;5009100;28;20080;-85
2023/11/08 06:42:34;;;;;;;3.08;0.70;;;;;;;;;;5009096;28;20122;-85
2023/11/08 06:45:03;;;;;;;2.22;0.70;;;;;;;;;;5008798;28;20050;-84
2023/11/08 06:47:31;;;;;;;2.17;1.00;;;;;;;;;;5008998;28;20149;-86
2023/11/08 06:49:58;;;;;;;0.90;0.60;;;;;;;;;;5008801;28;20116;-86
2023/11/08 06:52:26;;;;;;;2.03;0.80;;;;;;;;;;5008550;28;20112;-85
2023/11/08 06:54:53;;;;;;;1.88;0.65;;;;;;;;;;5008729;28;20054;-90
2023/11/08 06:57:21;;;;;;;1.80;0.70;;;;;;;;;;5008642;28;20060;-85
2023/11/08 06:59:48;;;;;;;0.88;0.57;;;;;;;;;;5010984;28;20046;-86
2023/11/08 07:02:15;;;;;;;1.67;0.90;;;;;;;;;;5012462;28;20112;-85
2023/11/08 07:04:43;;;;;;;3.35;0.65;;;;;;;;;;5012523;28;20070;-86
2023/11/08 07:07:11;;;;;;;0.50;0.50;;;;;;;;;;5012424;28;20498;-84
2023/11/08 07:09:39;;;;;;;1.45;0.70;;;;;;;;;;5012276;28;20113;-86
2023/11/08 07:12:08;;;;;;;3.53;1.08;;;;;;;;;;5012154;28;20046;-86
2023/11/08 07:14:36;;;;;;;2.38;0.90;;;;;;;;;;5012210;28;20042;-86
2023/11/08 07:17:03;;;;;;;2.88;1.00;;;;;;;;;;5004271;28;20102;-86
2023/11/08 07:19:30;;;;;;;2.60;1.17;;;;;;;;;;5012363;28;20046;-86
2023/11/08 07:21:58;;;;;;;2.88;0.93;;;;;;;;;;5012205;28;20050;-85
2023/11/08 07:24:25;;;;;;;2.47;0.95;;;;;;;;;;5011856;28;20062;-86
2023/11/08 07:26:53;;;;;;;2.97;0.80;;;;;;;;;;5012186;28;20056;-86
2023/11/08 07:29:22;;;;;;;2.28;0.70;;;;;;;;;;5012156;28;20109;-85
2023/11/08 07:31:52;;;;;;;2.05;0.80;;;;;;;;;;5012168;28;20121;-84
2023/11/08 07:34:21;;;;;;;3.30;0.95;;;;;;;;;;5012098;28;20093;-85
2023/11/08 07:36:51;;;;;;;3.63;1.02;;;;;;;;;;5012080;28;20052;-84
2023/11/08 07:39:18;;;;;;;6.22;0.80;;;;;;;;;;4997131;28;20050;-86
2023/11/08 07:41:54;;;;;;;1.50;0.93;;;;;;;;;;4996956;28;20442;-85
2023/11/08 07:44:21;;;;;;;4.13;1.15;;;;;;;;;;5012140;28;20057;-85
2023/11/08 07:46:49;;;;;;;1.70;0.75;;;;;;;;;;4999492;28;20042;-86
2023/11/08 07:49:16;;;;;;;2.50;0.98;;;;;;;;;;5012941;28;20080;-85
2023/11/08 07:51:45;;;;;;;2.78;1.27;;;;;;;;;;4996570;28;20533;-86
2023/11/08 07:54:12;;;;;;;3.58;1.17;;;;;;;;;;5012841;28;20466;-86
2023/11/08 07:56:40;;;;;;;3.80;1.33;;;;;;;;;;5013281;28;20124;-84
2023/11/08 07:59:07;;;;;;;3.25;1.15;;;;;;;;;;5012128;28;20050;-86
2023/11/08 08:01:34;;;;;;;2.83;1.13;;;;;;;;;;5011898;28;20062;-85
2023/11/08 08:04:02;;;;;;;3.75;0.88;;;;;;;;;;4996496;28;20054;-86
2023/11/08 08:06:29;;;;;;;2.35;1.13;;;;;;;;;;5011752;28;20046;-86
2023/11/08 08:08:57;;;;;;;2.28;1.10;;;;;;;;;;5012229;28;20093;-86
2023/11/08 08:11:25;;;;;;;4.50;1.05;;;;;;;;;;5010437;28;20057;-85
2023/11/08 08:13:52;;;;;;;2.97;0.82;;;;;;;;;;5011831;28;20065;-85
2023/11/08 08:16:20;;;;;;;1.75;0.80;;;;;;;;;;5011937;28;20066;-84
2023/11/08 08:18:47;;;;;;;5.82;1.02;;;;;;;;;;4996932;28;20052;-86
2023/11/08 08:21:15;;;;;;;2.75;1.00;;;;;;;;;;5011101;28;20050;-85
2023/11/08 08:23:42;;;;;;;1.70;0.90;;;;;;;;;;5011077;28;20046;-85
2023/11/08 08:26:23;;;;;;;1.88;1.15;;;;;;;;;;4995932;28;20085;-85
2023/11/08 08:28:51;;;;;;;1.92;0.80;;;;;;;;;;5010938;28;20058;-84
2023/11/08 08:31:18;;;;;;;2.35;0.75;;;;;;;;;;5010423;28;20097;-85
2023/11/08 08:33:45;;;;;;;5.57;1.02;;;;;;;;;;5010963;28;20058;-83
2023/11/08 08:36:13;;;;;;;2.35;0.73;;;;;;;;;;4995461;28;20153;-85
2023/11/08 08:38:40;;;;;;;2.03;0.88;;;;;;;;;;5010733;28;20042;-83
2023/11/08 08:41:10;;;;;;;5.63;0.80;;;;;;;;;;5010319;28;20116;-86
2023/11/08 08:43:37;;;;;;;3.03;0.63;;;;;;;;;;5010658;28;20050;-84
2023/11/08 08:46:05;;;;;;;1.33;0.55;;;;;;;;;;5010603;28;20109;-85
2023/11/08 08:48:32;;;;;;;1.80;0.80;;;;;;;;;;5010722;28;20061;-85
2023/11/08 08:51:01;;;;;;;1.20;0.50;;;;;;;;;;5010601;28;20535;-86
2023/11/08 08:53:28;;;;;;;4.35;0.80;;;;;;;;;;5010662;28;20050;-84
2023/11/08 08:55:56;;;;;;;1.42;0.60;;;;;;;;;;5010631;28;20058;-85
2023/11/08 08:58:23;;;;;;;1.27;0.70;;;;;;;;;;5010128;28;20069;-87
2023/11/08 09:00:50;;;;;;;1.77;0.85;;;;;;;;;;5010355;28;20121;-84
2023/11/08 09:03:17;;;;;;;2.72;0.90;;;;;;;;;;5009953;28;20062;-86
2023/11/08 09:05:45;;;;;;;4.18;1.15;;;;;;;;;;5010335;28;20057;-85
2023/11/08 09:08:12;;;;;;;2.13;0.82;;;;;;;;;;4994711;28;20047;-85
2023/11/08 09:10:40;;;;;;;2.53;0.75;;;;;;;;;;5010101;28;20054;-84
2023/11/08 09:13:07;;;;;;;1.88;0.60;;;;;;;;;;5010039;28;20055;-85
2023/11/08 09:15:34;;;;;;;2.65;0.52;;;;;;;;;;5009874;28;20050;-84
2023/11/08 09:18:01;;;;;;;1.15;0.60;;;;;;;;;;4995135;28;20407;-84
2023/11/08 09:20:29;;;;;;;3.08;0.70;;;;;;;;;;5010249;28;20057;-84
2023/11/08 09:22:57;;;;;;;3.60;0.85;;;;;;;;;;4995476;28;20045;-86
2023/11/08 09:25:27;;;;;;;1.38;0.77;;;;;;;;;;4994725;28;20054;-86
2023/11/08 09:27:54;;;;;;;2.60;0.80;;;;;;;;;;5010192;28;20046;-86
2023/11/08 09:30:21;;;;;;;2.15;0.60;;;;;;;;;;5009991;28;20090;-84
2023/11/08 09:32:50;;;;;;;2.20;0.55;;;;;;;;;;5009941;28;20054;-86
2023/11/08 09:35:18;;;;;;;2.75;0.70;;;;;;;;;;5009758;28;20483;-86
2023/11/08 09:37:45;;;;;;;2.15;0.70;;;;;;;;;;5009844;28;20058;-85
2023/11/08 09:40:14;;;;;;;1.52;0.40;;;;;;;;;;5009881;28;20399;-86
2023/11/08 09:42:42;;;;;;;1.80;0.60;;;;;;;;;;5009767;28;20046;-86
2023/11/08 09:45:11;;;;;;;1.48;0.45;;;;;;;;;;5009654;28;20129;-85
2023/11/08 09:47:42;;;;;;;0.88;0.68;;;;;;;;;;4986849;28;20088;-86
2023/11/08 09:50:10;;;;;;;6.32;0.88;;;;;;;;;;5009371;28;20057;-85
2023/11/08 09:52:38;;;;;;;0.73;0.55;;;;;;;;;;5009189;28;20050;-84
2023/11/08 09:55:06;;;;;;;0.90;0.60;;;;;;;;;;5008835;28;20396;-85
2023/11/08 09:57:35;;;;;;;0.82;0.60;;;;;;;;;;5009111;28;20054;-85
2023/11/08 10:00:03;;;;;;;2.58;1.08;;;;;;;;;;4994081;28;20053;-85
2023/11/08 10:02:32;;;;;;;2.55;0.90;;;;;;;;;;5009309;28;20101;-85
2023/11/08 10:05:03;;;;;;;4.07;0.82;;;;;;;;;;5009140;28;20050;-85
2023/11/08 10:07:31;;;;;;;2.33;0.90;;;;;;;;;;5001513;28;20056;-85
2023/11/08 10:09:58;;;;;;;3.53;0.70;;;;;;;;;;5009059;28;20053;-86
2023/11/08 10:12:26;;;;;;;4.22;0.90;;;;;;;;;;5009069;28;20569;-84
2023/11/08 10:15:06;;;;;;;3.25;1.00;;;;;;;;;;5009249;28;20077;-86
2023/11/08 10:17:41;;;;;;;6.70;1.38;;;;;;;;;;4987258;28;20108;-85
2023/11/08 10:20:29;;;;;;;;;;;;;;;;;;4986727;28;20050;-86
2023/11/08 10:22:57;;;;;;;2.40;0.90;;;;;;;;;;5009431;28;19922;-85
2023/11/08 10:25:27;;;;;;;3.10;0.88;;;;;;;;;;5008963;28;20419;-86
2023/11/08 10:28:05;;;;;;;1.55;0.70;;;;;;;;;;5009325;28;20046;-87
2023/11/08 10:30:36;;;;;;;1.40;0.63;;;;;;;;;;5009185;28;20105;-85
2023/11/08 10:33:07;;;;;;;4.65;0.77;;;;;;;;;;5009199;28;20142;-86
2023/11/08 10:35:36;;;;;;;1.25;0.70;;;;;;;;;;5012430;28;20050;-85
2023/11/08 10:38:05;;;;;;;1.77;0.80;;;;;;;;;;5014622;28;20113;-85
2023/11/08 10:40:33;;;;;;;0.60;0.60;;;;;;;;;;5014371;28;20109;-85
2023/11/08 10:43:02;;;;;;;2.05;0.50;;;;;;;;;;4998491;28;20054;-86
2023/11/08 10:45:33;;;;;;;2.97;0.95;;;;;;;;;;5008375;28;20050;-86
2023/11/08 10:48:01;;;;;;;0.95;0.60;;;;;;;;;;5012919;28;20054;-87
2023/11/08 10:50:28;;;;;;;0.60;0.60;;;;;;;;;;5004685;28;20050;-86
2023/11/08 10:52:57;;;;;;;3.60;0.63;;;;;;;;;;5013014;28;20067;-86
2023/11/08 10:55:25;;;;;;;3.03;0.57;;;;;;;;;;5012994;28;20141;-87
2023/11/08 10:57:54;;;;;;;3.05;0.68;;;;;;;;;;5012999;28;20108;-85
2023/11/08 11:00:26;;;;;;;1.08;0.60;;;;;;;;;;5012756;28;20070;-86
2023/11/08 11:02:54;;;;;;;0.70;0.55;;;;;;;;;;5012489;28;20050;-84
2023/11/08 11:05:23;;;;;;;1.52;0.70;;;;;;;;;;4997087;28;20047;-85
2023/11/08 11:07:55;;;;;;;2.90;0.80;;;;;;;;;;4997126;28;20059;-86
2023/11/08 11:10:23;;;;;;;0.82;0.60;;;;;;;;;;5012467;28;20833;-86
2023/11/08 11:13:11;;;;;;;3.40;0.70;;;;;;;;;;5012309;28;20050;-85
2023/11/08 11:15:57;;;;;;;1.20;0.65;;;;;;;;;;5005560;28;20053;-84
2023/11/08 11:18:26;;;;;;;0.57;0.55;;;;;;;;;;5012462;28;20113;-86
2023/11/08 11:21:00;;;;;;;0.50;0.40;;;;;;;;;;5012459;28;20050;-85
2023/11/08 11:23:35;;;;;;;0.95;0.60;;;;;;;;;;5012644;28;20054;-85
2023/11/08 11:26:06;;;;;;;1.23;0.77;;;;;;;;;;5011833;28;20046;-86
2023/11/08 11:28:52;;;;;;;2.95;1.00;;;;;;;;;;5012524;28;20057;-85
2023/11/08 11:31:37;;;;;;;2.97;0.80;;;;;;;;;;5012284;28;20105;-86
2023/11/08 11:34:26;;;;;;;2.28;0.73;;;;;;;;;;5012209;28;20054;-86
2023/11/08 11:37:12;;;;;;;3.53;0.90;;;;;;;;;;4996966;28;20065;-85
2023/11/08 11:39:42;;;;;;;0.55;0.55;;;;;;;;;;5005876;28;20054;-86
2023/11/08 11:42:13;;;;;;;3.42;0.60;;;;;;;;;;5011928;28;20491;-86
2023/11/08 11:44:45;;;;;;;1.35;0.82;;;;;;;;;;5011592;28;20046;-86
2023/11/08 11:47:13;;;;;;;1.52;0.50;;;;;;;;;;4996958;28;20510;-86
2023/11/08 11:49:51;;;;;;;3.60;0.70;;;;;;;;;;5012051;28;20141;-88
2023/11/08 11:52:19;;;;;;;1.42;0.70;;;;;;;;;;5011978;28;20100;-87
2023/11/08 11:54:51;;;;;;;3.15;0.65;;;;;;;;;;5011666;28;20046;-87
2023/11/08 11:57:19;;;;;;;1.40;0.57;;;;;;;;;;5011482;28;20476;-84
2023/11/08 11:59:49;;;;;;;0.82;0.60;;;;;;;;;;5011590;28;20046;-85
2023/11/08 12:02:17;;;;;;;3.70;0.90;;;;;;;;;;5011632;28;20065;-86
2023/11/08 12:04:45;;;;;;;1.20;0.65;;;;;;;;;;4996448;28;20051;-85
2023/11/08 12:07:17;;;;;;;1.95;0.77;;;;;;;;;;4996031;28;20499;-86
2023/11/08 12:09:45;;;;;;;0.65;0.40;;;;;;;;;;5011366;28;20110;-86
2023/11/08 12:12:13;;;;;;;2.35;0.77;;;;;;;;;;5011514;28;20081;-87
2023/11/08 12:14:50;;;;;;;2.13;0.77;;;;;;;;;;5011235;28;20519;-86
2023/11/08 12:17:17;;;;;;;1.90;0.68;;;;;;;;;;5010881;28;20046;-85
2023/11/08 12:19:44;;;;;;;1.75;0.80;;;;;;;;;;4996219;28;20043;-86
2023/11/08 12:22:12;;;;;;;2.17;0.60;;;;;;;;;;5011079;28;20499;-87
2023/11/08 12:24:39;;;;;;;1.40;0.60;;;;;;;;;;5010927;28;20132;-87
2023/11/08 12:27:06;;;;;;;2.78;0.65;;;;;;;;;;5011160;28;20058;-85
2023/11/08 12:29:34;;;;;;;1.80;0.55;;;;;;;;;;5010939;28;20125;-85
2023/11/08 12:32:02;;;;;;;1.38;0.80;;;;;;;;;;4995833;28;20054;-87
2023/11/08 12:34:31;;;;;;;2.08;0.70;;;;;;;;;;5011099;28;20050;-86
2023/11/08 12:36:59;;;;;;;6.13;0.82;;;;;;;;;;5010867;28;20046;-85
2023/11/08 12:39:26;;;;;;;2.03;0.80;;;;;;;;;;4995737;28;20164;-86
2023/11/08 12:41:55;;;;;;;2.28;0.90;;;;;;;;;;5010741;28;20434;-86
2023/11/08 12:44:24;;;;;;;1.65;0.80;;;;;;;;;;5010666;28;20058;-88
2023/11/08 12:46:53;;;;;;;2.85;1.00;;;;;;;;;;5010877;28;20128;-85
2023/11/08 12:49:24;;;;;;;2.85;0.75;;;;;;;;;;5010616;28;20093;-87
2023/11/08 12:51:51;;;;;;;3.78;1.15;;;;;;;;;;4995534;28;20225;-86
2023/11/08 12:54:19;;;;;;;1.98;1.00;;;;;;;;;;5010733;28;20133;-85
2023/11/08 12:56:47;;;;;;;6.28;1.25;;;;;;;;;;5009929;28;20073;-85
2023/11/08 12:59:18;;;;;;;3.40;0.85;;;;;;;;;;5010609;28;20096;-86
2023/11/08 13:01:49;;;;;;;4.00;1.70;;;;;;;;;;5010329;28;20058;-85
2023/11/08 13:04:22;;;;;;;6.68;1.05;;;;;;;;;;5010352;28;20461;-85
2023/11/08 13:06:50;;;;;;;2.97;0.90;;;;;;;;;;5010170;28;20112;-86
2023/11/08 13:09:17;;;;;;;6.18;1.20;;;;;;;;;;5010290;28;20054;-86
2023/11/08 13:11:45;;;;;;;5.78;1.33;;;;;;;;;;5010633;28;20495;-86
2023/11/08 13:14:16;;;;;;;3.92;0.88;;;;;;;;;;5009758;28;20050;-86
2023/11/08 13:16:44;;;;;;;1.67;0.80;;;;;;;;;;5009838;28;20104;-87
2023/11/08 13:19:12;;;;;;;7.50;1.30;;;;;;;;;;5010291;28;20054;-85
2023/11/08 13:21:39;;;;;;;5.32;1.45;;;;;;;;;;5010364;28;20101;-85
2023/11/08 13:24:07;;;;;;;4.90;1.13;;;;;;;;;;5010501;28;20526;-86
2023/11/08 13:26:35;;;;;;;2.38;1.05;;;;;;;;;;5009731;28;20510;-87
2023/11/08 13:29:03;;;;;;;3.22;0.85;;;;;;;;;;5010511;28;20133;-83
2023/11/08 13:31:30;;;;;;;3.15;1.00;;;;;;;;;;4995327;28;20125;-85
2023/11/08 13:33:58;;;;;;;3.97;1.02;;;;;;;;;;5009699;28;20129;-86
2023/11/08 13:36:28;;;;;;;2.53;1.30;;;;;;;;;;5009552;28;20105;-85
2023/11/08 13:38:56;;;;;;;4.65;1.10;;;;;;;;;;5009696;28;20434;-85
2023/11/08 13:41:24;;;;;;;4.90;1.23;;;;;;;;;;5009525;28;20062;-85
2023/11/08 13:43:52;;;;;;;5.40;1.25;;;;;;;;;;5009894;28;20053;-86
2023/11/08 13:46:19;;;;;;;4.93;0.80;;;;;;;;;;5009651;28;20042;-87
2023/11/08 13:48:46;;;;;;;2.47;1.02;;;;;;;;;;5009773;28;20507;-84
2023/11/08 13:51:14;;;;;;;3.25;0.80;;;;;;;;;;4994250;28;20487;-85
2023/11/08 13:53:41;;;;;;;3.63;1.10;;;;;;;;;;5009549;28;20130;-86
2023/11/08 13:56:09;;;;;;;5.25;1.63;;;;;;;;;;5009385;28;20050;-87
2023/11/08 13:58:36;;;;;;;9.77;1.60;;;;;;;;;;5009706;28;20047;-87
2023/11/08 14:01:09;;;;;;;3.92;1.20;;;;;;;;;;5009615;28;20053;-86
2023/11/08 14:03:38;;;;;;;2.80;0.80;;;;;;;;;;5009332;28;20050;-86
2023/11/08 14:06:08;;;;;;;5.95;0.82;;;;;;;;;;5009343;28;20050;-85
2023/11/08 14:08:37;;;;;;;4.32;1.25;;;;;;;;;;4994005;28;20058;-85
2023/11/08 14:11:05;;;;;;;6.88;0.90;;;;;;;;;;5009189;28;20061;-86
2023/11/08 14:13:32;;;;;;;2.80;0.77;;;;;;;;;;5009398;28;20054;-86
2023/11/08 14:16:00;;;;;;;3.33;0.90;;;;;;;;;;5009380;28;20054;-87
2023/11/08 14:18:27;;;;;;;1.95;0.70;;;;;;;;;;5009052;28;20101;-87
2023/11/08 14:20:56;;;;;;;0.95;0.60;;;;;;;;;;5009161;28;20054;-87
2023/11/08 14:23:23;;;;;;;2.50;0.80;;;;;;;;;;5009104;28;20097;-88
2023/11/08 14:25:51;;;;;;;5.13;0.95;;;;;;;;;;5008968;28;20054;-86
2023/11/08 14:28:18;;;;;;;6.50;0.90;;;;;;;;;;5009190;28;20132;-86
2023/11/08 14:30:46;;;;;;;3.70;1.25;;;;;;;;;;5009343;28;20129;-86
2023/11/08 14:33:16;;;;;;;5.82;0.98;;;;;;;;;;4993891;28;20060;-86
2023/11/08 14:35:44;;;;;;;1.83;0.57;;;;;;;;;;5009117;28;20046;-86
2023/11/08 14:38:11;;;;;;;3.72;0.93;;;;;;;;;;5008746;28;20054;-87
2023/11/08 14:40:40;;;;;;;7.22;1.33;;;;;;;;;;5009281;28;20046;-85
2023/11/08 14:43:08;;;;;;;2.28;1.13;;;;;;;;;;4993853;28;20054;-87
2023/11/08 14:45:35;;;;;;;2.42;1.00;;;;;;;;;;5009038;28;20557;-86
2023/11/08 14:48:03;;;;;;;2.10;0.60;;;;;;;;;;5008704;28;20506;-85
2023/11/08 14:50:30;;;;;;;7.20;1.20;;;;;;;;;;5008769;28;20078;-86